sensor_id;sensor_type;location;lat;lon;timestamp;temperature;humidity
33803;DHT22;20110;53.120;5.786;2023-12-22T00:02:06;10.90;99.90
33803;DHT22;20110;53.120;5.786;2023-12-22T00:04:34;11.20;99.90
33803;DHT22;20110;53.120;5.786;2023-12-22T00:07:10;11.50;99.90
33803;DHT22;20110;53.120;5.786;2023-12-22T00:09:41;10.50;99.90
33803;DHT22;20110;53.120;5.786;2023-12-22T00:12:15;10.00;99.90
33803;DHT22;20110;53.120;5.786;2023-12-22T00:14:56;9.90;99.90
33803;DHT22;20110;53.120;5.786;2023-12-22T00:17:33;9.90;99.90
33803;DHT22;20110;53.120;5.786;2023-12-22T00:19:59;9.70;99.90
33803;DHT22;20110;53.120;5.786;2023-12-22T00:22:28;10.00;99.90
33803;DHT22;20110;53.120;5.786;2023-12-22T00:24:55;9.90;99.90
33803;DHT22;20110;53.120;5.786;2023-12-22T00:27:20;10.10;99.90
33803;DHT22;20110;53.120;5.786;2023-12-22T00:29:46;10.30;99.90
33803;DHT22;20110;53.120;5.786;2023-12-22T00:32:12;10.40;99.90
33803;DHT22;20110;53.120;5.786;2023-12-22T00:34:37;10.70;99.90
33803;DHT22;20110;53.120;5.786;2023-12-22T00:37:03;10.80;99.90
33803;DHT22;20110;53.120;5.786;2023-12-22T00:39:30;10.80;99.90
33803;DHT22;20110;53.120;5.786;2023-12-22T00:41:56;10.90;99.90
33803;DHT22;20110;53.120;5.786;2023-12-22T00:44:22;11.10;99.90
33803;DHT22;20110;53.120;5.786;2023-12-22T00:46:48;11.10;99.90
33803;DHT22;20110;53.120;5.786;2023-12-22T00:49:14;11.10;99.90
33803;DHT22;20110;53.120;5.786;2023-12-22T00:51:40;11.00;99.90
33803;DHT22;20110;53.120;5.786;2023-12-22T00:54:05;10.90;99.90
33803;DHT22;20110;53.120;5.786;2023-12-22T00:56:31;11.10;99.90
33803;DHT22;20110;53.120;5.786;2023-12-22T00:58:57;11.20;99.90
33803;DHT22;20110;53.120;5.786;2023-12-22T01:01:22;11.20;99.90
33803;DHT22;20110;53.120;5.786;2023-12-22T01:03:48;11.30;99.90
33803;DHT22;20110;53.120;5.786;2023-12-22T01:06:14;11.30;99.90
33803;DHT22;20110;53.120;5.786;2023-12-22T01:08:40;11.10;99.90
33803;DHT22;20110;53.120;5.786;2023-12-22T01:11:05;10.90;99.90
33803;DHT22;20110;53.120;5.786;2023-12-22T01:13:31;10.80;99.90
33803;DHT22;20110;53.120;5.786;2023-12-22T01:15:57;10.70;99.90
33803;DHT22;20110;53.120;5.786;2023-12-22T01:18:22;10.70;99.90
33803;DHT22;20110;53.120;5.786;2023-12-22T01:20:50;10.80;99.90
33803;DHT22;20110;53.120;5.786;2023-12-22T01:23:16;10.80;99.90
33803;DHT22;20110;53.120;5.786;2023-12-22T01:25:41;10.80;99.90
33803;DHT22;20110;53.120;5.786;2023-12-22T01:28:07;10.80;99.90
33803;DHT22;20110;53.120;5.786;2023-12-22T01:30:33;10.70;99.90
33803;DHT22;20110;53.120;5.786;2023-12-22T01:32:58;10.90;99.90
33803;DHT22;20110;53.120;5.786;2023-12-22T01:35:24;10.90;99.90
33803;DHT22;20110;53.120;5.786;2023-12-22T01:37:50;11.00;99.90
33803;DHT22;20110;53.120;5.786;2023-12-22T01:40:16;11.00;99.90
33803;DHT22;20110;53.120;5.786;2023-12-22T01:42:42;11.00;99.90
33803;DHT22;20110;53.120;5.786;2023-12-22T01:45:08;11.00;99.90
33803;DHT22;20110;53.120;5.786;2023-12-22T01:47:34;11.00;99.90
33803;DHT22;20110;53.120;5.786;2023-12-22T01:50:00;11.00;99.90
33803;DHT22;20110;53.120;5.786;2023-12-22T01:52:26;11.10;99.90
33803;DHT22;20110;53.120;5.786;2023-12-22T01:54:52;11.20;99.90
33803;DHT22;20110;53.120;5.786;2023-12-22T01:57:20;11.50;99.90
33803;DHT22;20110;53.120;5.786;2023-12-22T01:59:46;11.40;99.90
33803;DHT22;20110;53.120;5.786;2023-12-22T02:02:14;10.90;99.90
33803;DHT22;20110;53.120;5.786;2023-12-22T02:04:40;10.60;99.90
33803;DHT22;20110;53.120;5.786;2023-12-22T02:07:06;10.30;99.90
33803;DHT22;20110;53.120;5.786;2023-12-22T02:09:34;10.20;99.90
33803;DHT22;20110;53.120;5.786;2023-12-22T02:12:00;10.20;99.90
33803;DHT22;20110;53.120;5.786;2023-12-22T02:14:26;10.30;99.90
33803;DHT22;20110;53.120;5.786;2023-12-22T02:19:43;10.50;99.90
33803;DHT22;20110;53.120;5.786;2023-12-22T02:22:10;10.60;99.90
33803;DHT22;20110;53.120;5.786;2023-12-22T02:24:41;10.80;99.90
33803;DHT22;20110;53.120;5.786;2023-12-22T02:27:14;11.00;99.90
33803;DHT22;20110;53.120;5.786;2023-12-22T02:29:48;10.90;99.90
33803;DHT22;20110;53.120;5.786;2023-12-22T02:32:25;10.70;99.90
33803;DHT22;20110;53.120;5.786;2023-12-22T02:34:55;10.50;99.90
33803;DHT22;20110;53.120;5.786;2023-12-22T02:37:22;10.40;99.90
33803;DHT22;20110;53.120;5.786;2023-12-22T02:39:49;10.40;99.90
33803;DHT22;20110;53.120;5.786;2023-12-22T02:42:16;10.40;99.90
33803;DHT22;20110;53.120;5.786;2023-12-22T02:44:43;10.20;99.90
33803;DHT22;20110;53.120;5.786;2023-12-22T02:47:08;10.00;99.90
33803;DHT22;20110;53.120;5.786;2023-12-22T02:49:34;9.70;99.90
33803;DHT22;20110;53.120;5.786;2023-12-22T02:52:00;9.70;99.90
33803;DHT22;20110;53.120;5.786;2023-12-22T02:54:25;9.70;99.90
33803;DHT22;20110;53.120;5.786;2023-12-22T02:56:53;9.70;99.90
33803;DHT22;20110;53.120;5.786;2023-12-22T02:59:19;9.70;99.90
33803;DHT22;20110;53.120;5.786;2023-12-22T03:01:44;9.80;99.90
33803;DHT22;20110;53.120;5.786;2023-12-22T03:04:10;9.90;99.90
33803;DHT22;20110;53.120;5.786;2023-12-22T03:06:36;10.10;99.90
33803;DHT22;20110;53.120;5.786;2023-12-22T03:09:01;10.20;99.90
33803;DHT22;20110;53.120;5.786;2023-12-22T03:11:28;10.20;99.90
33803;DHT22;20110;53.120;5.786;2023-12-22T03:13:53;10.20;99.90
33803;DHT22;20110;53.120;5.786;2023-12-22T03:16:19;10.30;99.90
33803;DHT22;20110;53.120;5.786;2023-12-22T03:18:45;10.40;99.90
33803;DHT22;20110;53.120;5.786;2023-12-22T03:21:17;10.50;99.90
33803;DHT22;20110;53.120;5.786;2023-12-22T03:23:44;10.40;99.90
33803;DHT22;20110;53.120;5.786;2023-12-22T03:26:10;10.60;99.90
33803;DHT22;20110;53.120;5.786;2023-12-22T03:28:35;10.60;99.90
33803;DHT22;20110;53.120;5.786;2023-12-22T03:31:01;10.60;99.90
33803;DHT22;20110;53.120;5.786;2023-12-22T03:33:27;11.10;99.90
33803;DHT22;20110;53.120;5.786;2023-12-22T03:35:53;10.70;99.90
33803;DHT22;20110;53.120;5.786;2023-12-22T03:38:19;10.60;99.90
33803;DHT22;20110;53.120;5.786;2023-12-22T03:40:45;10.60;99.90
33803;DHT22;20110;53.120;5.786;2023-12-22T03:43:10;10.60;99.90
33803;DHT22;20110;53.120;5.786;2023-12-22T03:45:36;10.60;99.90
33803;DHT22;20110;53.120;5.786;2023-12-22T03:48:01;10.60;99.90
33803;DHT22;20110;53.120;5.786;2023-12-22T03:50:27;10.80;99.90
33803;DHT22;20110;53.120;5.786;2023-12-22T03:52:53;10.80;99.90
33803;DHT22;20110;53.120;5.786;2023-12-22T03:55:19;10.80;99.90
33803;DHT22;20110;53.120;5.786;2023-12-22T03:57:44;11.40;99.90
33803;DHT22;20110;53.120;5.786;2023-12-22T04:00:10;11.00;99.90
33803;DHT22;20110;53.120;5.786;2023-12-22T04:02:36;10.90;99.90
33803;DHT22;20110;53.120;5.786;2023-12-22T04:05:02;10.90;99.90
33803;DHT22;20110;53.120;5.786;2023-12-22T04:07:28;10.90;99.90
33803;DHT22;20110;53.120;5.786;2023-12-22T04:09:53;11.00;99.90
33803;DHT22;20110;53.120;5.786;2023-12-22T04:12:19;11.00;99.90
33803;DHT22;20110;53.120;5.786;2023-12-22T04:14:45;11.00;99.90
33803;DHT22;20110;53.120;5.786;2023-12-22T04:17:10;11.10;99.90
33803;DHT22;20110;53.120;5.786;2023-12-22T04:19:36;11.00;99.90
33803;DHT22;20110;53.120;5.786;2023-12-22T04:22:02;11.10;99.90
33803;DHT22;20110;53.120;5.786;2023-12-22T04:24:28;11.00;99.90
33803;DHT22;20110;53.120;5.786;2023-12-22T04:26:53;11.10;99.90
33803;DHT22;20110;53.120;5.786;2023-12-22T04:29:19;11.10;99.90
33803;DHT22;20110;53.120;5.786;2023-12-22T04:31:45;11.10;99.90
33803;DHT22;20110;53.120;5.786;2023-12-22T04:34:13;10.50;99.90
33803;DHT22;20110;53.120;5.786;2023-12-22T04:36:39;11.10;99.90
33803;DHT22;20110;53.120;5.786;2023-12-22T04:39:05;11.10;99.90
33803;DHT22;20110;53.120;5.786;2023-12-22T04:41:31;11.10;99.90
33803;DHT22;20110;53.120;5.786;2023-12-22T04:43:56;11.10;99.90
33803;DHT22;20110;53.120;5.786;2023-12-22T04:46:22;11.10;99.90
33803;DHT22;20110;53.120;5.786;2023-12-22T04:48:48;11.20;99.90
33803;DHT22;20110;53.120;5.786;2023-12-22T04:51:13;11.40;99.90
33803;DHT22;20110;53.120;5.786;2023-12-22T04:53:39;11.30;99.90
33803;DHT22;20110;53.120;5.786;2023-12-22T04:56:05;11.30;99.90
33803;DHT22;20110;53.120;5.786;2023-12-22T04:58:31;11.30;99.90
33803;DHT22;20110;53.120;5.786;2023-12-22T05:00:57;11.40;99.90
33803;DHT22;20110;53.120;5.786;2023-12-22T05:03:22;11.40;99.90
33803;DHT22;20110;53.120;5.786;2023-12-22T05:05:48;11.30;99.90
33803;DHT22;20110;53.120;5.786;2023-12-22T05:08:14;11.30;99.90
33803;DHT22;20110;53.120;5.786;2023-12-22T05:10:41;11.40;99.90
33803;DHT22;20110;53.120;5.786;2023-12-22T05:13:07;11.40;99.90
33803;DHT22;20110;53.120;5.786;2023-12-22T05:15:32;11.30;99.90
33803;DHT22;20110;53.120;5.786;2023-12-22T05:17:58;11.30;99.90
33803;DHT22;20110;53.120;5.786;2023-12-22T05:20:24;11.30;99.90
33803;DHT22;20110;53.120;5.786;2023-12-22T05:22:49;11.50;99.90
33803;DHT22;20110;53.120;5.786;2023-12-22T05:25:15;11.50;99.90
33803;DHT22;20110;53.120;5.786;2023-12-22T05:27:41;11.50;99.90
33803;DHT22;20110;53.120;5.786;2023-12-22T05:30:08;11.40;99.90
33803;DHT22;20110;53.120;5.786;2023-12-22T05:32:34;11.40;99.90
33803;DHT22;20110;53.120;5.786;2023-12-22T05:35:00;11.50;99.90
33803;DHT22;20110;53.120;5.786;2023-12-22T05:37:26;11.40;99.90
33803;DHT22;20110;53.120;5.786;2023-12-22T05:39:51;11.40;99.90
33803;DHT22;20110;53.120;5.786;2023-12-22T05:42:17;11.40;99.90
33803;DHT22;20110;53.120;5.786;2023-12-22T05:44:43;11.30;99.90
33803;DHT22;20110;53.120;5.786;2023-12-22T05:47:09;11.20;99.90
33803;DHT22;20110;53.120;5.786;2023-12-22T05:49:36;11.30;99.90
33803;DHT22;20110;53.120;5.786;2023-12-22T05:52:02;11.40;99.90
33803;DHT22;20110;53.120;5.786;2023-12-22T05:54:28;11.40;99.90
33803;DHT22;20110;53.120;5.786;2023-12-22T05:56:53;11.30;99.90
33803;DHT22;20110;53.120;5.786;2023-12-22T05:59:19;11.40;99.90
33803;DHT22;20110;53.120;5.786;2023-12-22T06:01:45;11.30;99.90
33803;DHT22;20110;53.120;5.786;2023-12-22T06:04:10;11.30;99.90
33803;DHT22;20110;53.120;5.786;2023-12-22T06:06:36;11.20;99.90
33803;DHT22;20110;53.120;5.786;2023-12-22T06:09:04;11.30;99.90
33803;DHT22;20110;53.120;5.786;2023-12-22T06:11:30;11.30;99.90
33803;DHT22;20110;53.120;5.786;2023-12-22T06:13:56;11.50;99.90
33803;DHT22;20110;53.120;5.786;2023-12-22T06:16:21;11.50;99.90
33803;DHT22;20110;53.120;5.786;2023-12-22T06:18:47;11.50;99.90
33803;DHT22;20110;53.120;5.786;2023-12-22T06:21:13;11.40;99.90
33803;DHT22;20110;53.120;5.786;2023-12-22T06:23:40;11.40;99.90
33803;DHT22;20110;53.120;5.786;2023-12-22T06:26:10;11.50;99.90
33803;DHT22;20110;53.120;5.786;2023-12-22T06:28:36;11.40;99.90
33803;DHT22;20110;53.120;5.786;2023-12-22T06:31:03;11.50;99.90
33803;DHT22;20110;53.120;5.786;2023-12-22T06:33:29;11.60;99.90
33803;DHT22;20110;53.120;5.786;2023-12-22T06:35:55;11.60;99.90
33803;DHT22;20110;53.120;5.786;2023-12-22T06:38:21;11.50;99.90
33803;DHT22;20110;53.120;5.786;2023-12-22T06:40:46;11.40;99.90
33803;DHT22;20110;53.120;5.786;2023-12-22T06:43:12;11.40;99.90
33803;DHT22;20110;53.120;5.786;2023-12-22T06:45:40;11.40;99.90
33803;DHT22;20110;53.120;5.786;2023-12-22T06:48:06;11.40;99.90
33803;DHT22;20110;53.120;5.786;2023-12-22T06:50:32;11.50;99.90
33803;DHT22;20110;53.120;5.786;2023-12-22T06:52:58;11.40;99.90
33803;DHT22;20110;53.120;5.786;2023-12-22T06:55:23;11.30;99.90
33803;DHT22;20110;53.120;5.786;2023-12-22T06:57:49;11.20;99.90
33803;DHT22;20110;53.120;5.786;2023-12-22T07:00:15;11.10;99.90
33803;DHT22;20110;53.120;5.786;2023-12-22T07:02:41;11.10;99.90
33803;DHT22;20110;53.120;5.786;2023-12-22T07:07:48;10.80;99.90
33803;DHT22;20110;53.120;5.786;2023-12-22T07:10:14;10.60;99.90
33803;DHT22;20110;53.120;5.786;2023-12-22T07:12:39;10.70;99.90
33803;DHT22;20110;53.120;5.786;2023-12-22T07:15:05;10.90;99.90
33803;DHT22;20110;53.120;5.786;2023-12-22T07:33:25;11.30;99.90
33803;DHT22;20110;53.120;5.786;2023-12-22T07:35:51;11.30;99.90
33803;DHT22;20110;53.120;5.786;2023-12-22T07:38:17;10.10;99.90
33803;DHT22;20110;53.120;5.786;2023-12-22T07:40:42;11.00;99.90
33803;DHT22;20110;53.120;5.786;2023-12-22T07:43:08;10.90;99.90
33803;DHT22;20110;53.120;5.786;2023-12-22T07:45:34;10.90;99.90
33803;DHT22;20110;53.120;5.786;2023-12-22T07:48:00;11.10;99.90
33803;DHT22;20110;53.120;5.786;2023-12-22T07:50:25;11.00;99.90
33803;DHT22;20110;53.120;5.786;2023-12-22T07:52:51;11.00;99.90
33803;DHT22;20110;53.120;5.786;2023-12-22T07:55:17;11.20;99.90
33803;DHT22;20110;53.120;5.786;2023-12-22T07:57:44;11.20;99.90
33803;DHT22;20110;53.120;5.786;2023-12-22T08:00:10;11.10;99.90
33803;DHT22;20110;53.120;5.786;2023-12-22T08:02:36;11.00;99.90
33803;DHT22;20110;53.120;5.786;2023-12-22T08:05:02;11.30;99.90
33803;DHT22;20110;53.120;5.786;2023-12-22T08:07:29;10.70;99.90
33803;DHT22;20110;53.120;5.786;2023-12-22T08:09:55;10.70;99.90
33803;DHT22;20110;53.120;5.786;2023-12-22T08:12:21;10.60;99.90
33803;DHT22;20110;53.120;5.786;2023-12-22T08:14:47;10.60;99.90
33803;DHT22;20110;53.120;5.786;2023-12-22T08:17:13;10.70;99.90
33803;DHT22;20110;53.120;5.786;2023-12-22T08:19:39;10.60;99.90
33803;DHT22;20110;53.120;5.786;2023-12-22T08:22:10;10.60;99.90
33803;DHT22;20110;53.120;5.786;2023-12-22T08:24:38;10.60;99.90
33803;DHT22;20110;53.120;5.786;2023-12-22T08:27:05;10.60;99.90
33803;DHT22;20110;53.120;5.786;2023-12-22T08:29:32;10.60;99.90
33803;DHT22;20110;53.120;5.786;2023-12-22T08:31:58;10.60;99.90
33803;DHT22;20110;53.120;5.786;2023-12-22T08:34:24;10.60;99.90
33803;DHT22;20110;53.120;5.786;2023-12-22T08:36:51;10.60;99.90
33803;DHT22;20110;53.120;5.786;2023-12-22T08:39:17;10.50;99.90
33803;DHT22;20110;53.120;5.786;2023-12-22T08:41:43;10.50;99.90
33803;DHT22;20110;53.120;5.786;2023-12-22T08:44:09;10.50;99.90
33803;DHT22;20110;53.120;5.786;2023-12-22T08:46:35;10.50;99.90
33803;DHT22;20110;53.120;5.786;2023-12-22T08:49:01;10.30;99.90
33803;DHT22;20110;53.120;5.786;2023-12-22T08:51:28;10.30;99.90
33803;DHT22;20110;53.120;5.786;2023-12-22T08:53:54;10.40;99.90
33803;DHT22;20110;53.120;5.786;2023-12-22T08:56:21;10.30;99.90
33803;DHT22;20110;53.120;5.786;2023-12-22T08:58:53;10.20;99.90
33803;DHT22;20110;53.120;5.786;2023-12-22T09:01:20;10.00;99.90
33803;DHT22;20110;53.120;5.786;2023-12-22T09:03:47;9.90;99.90
33803;DHT22;20110;53.120;5.786;2023-12-22T09:06:16;9.90;99.90
33803;DHT22;20110;53.120;5.786;2023-12-22T09:08:43;9.90;99.90
33803;DHT22;20110;53.120;5.786;2023-12-22T09:11:12;10.00;99.90
33803;DHT22;20110;53.120;5.786;2023-12-22T09:13:42;10.10;99.90
33803;DHT22;20110;53.120;5.786;2023-12-22T09:16:09;10.50;99.90
33803;DHT22;20110;53.120;5.786;2023-12-22T09:18:35;10.70;99.90
33803;DHT22;20110;53.120;5.786;2023-12-22T09:21:01;10.90;99.90
33803;DHT22;20110;53.120;5.786;2023-12-22T09:23:30;11.00;99.90
33803;DHT22;20110;53.120;5.786;2023-12-22T09:25:57;11.00;99.90
33803;DHT22;20110;53.120;5.786;2023-12-22T09:28:23;11.10;99.90
33803;DHT22;20110;53.120;5.786;2023-12-22T09:30:49;11.30;99.90
33803;DHT22;20110;53.120;5.786;2023-12-22T09:33:15;11.30;99.90
33803;DHT22;20110;53.120;5.786;2023-12-22T09:35:41;11.00;99.90
33803;DHT22;20110;53.120;5.786;2023-12-22T09:38:08;10.70;99.90
33803;DHT22;20110;53.120;5.786;2023-12-22T09:40:40;10.70;99.90
33803;DHT22;20110;53.120;5.786;2023-12-22T09:43:07;10.50;99.90
33803;DHT22;20110;53.120;5.786;2023-12-22T09:45:33;10.50;99.90
33803;DHT22;20110;53.120;5.786;2023-12-22T09:48:00;10.50;99.90
33803;DHT22;20110;53.120;5.786;2023-12-22T09:50:26;10.70;99.90
33803;DHT22;20110;53.120;5.786;2023-12-22T09:52:52;11.00;99.90
33803;DHT22;20110;53.120;5.786;2023-12-22T09:55:21;10.90;99.90
33803;DHT22;20110;53.120;5.786;2023-12-22T09:57:47;10.70;99.90
33803;DHT22;20110;53.120;5.786;2023-12-22T10:00:13;10.50;99.90
33803;DHT22;20110;53.120;5.786;2023-12-22T10:02:40;10.90;99.90
33803;DHT22;20110;53.120;5.786;2023-12-22T10:05:08;11.10;99.90
33803;DHT22;20110;53.120;5.786;2023-12-22T10:07:35;11.10;99.90
33803;DHT22;20110;53.120;5.786;2023-12-22T10:10:01;11.20;99.90
33803;DHT22;20110;53.120;5.786;2023-12-22T10:12:29;11.30;99.90
33803;DHT22;20110;53.120;5.786;2023-12-22T10:14:56;11.30;99.90
33803;DHT22;20110;53.120;5.786;2023-12-22T10:17:21;11.00;99.90
33803;DHT22;20110;53.120;5.786;2023-12-22T10:19:48;10.80;99.90
33803;DHT22;20110;53.120;5.786;2023-12-22T10:22:14;10.80;99.90
33803;DHT22;20110;53.120;5.786;2023-12-22T10:24:43;10.90;99.90
33803;DHT22;20110;53.120;5.786;2023-12-22T10:27:13;10.70;99.90
33803;DHT22;20110;53.120;5.786;2023-12-22T10:29:40;11.00;99.90
33803;DHT22;20110;53.120;5.786;2023-12-22T10:32:06;11.30;99.90
33803;DHT22;20110;53.120;5.786;2023-12-22T10:34:34;11.50;99.90
33803;DHT22;20110;53.120;5.786;2023-12-22T10:37:00;11.40;99.90
33803;DHT22;20110;53.120;5.786;2023-12-22T10:39:30;11.20;99.90
33803;DHT22;20110;53.120;5.786;2023-12-22T10:41:56;11.30;99.90
33803;DHT22;20110;53.120;5.786;2023-12-22T10:44:24;11.50;99.90
33803;DHT22;20110;53.120;5.786;2023-12-22T10:46:50;11.60;99.90
33803;DHT22;20110;53.120;5.786;2023-12-22T10:49:17;11.60;99.90
33803;DHT22;20110;53.120;5.786;2023-12-22T10:51:43;11.80;99.90
33803;DHT22;20110;53.120;5.786;2023-12-22T10:54:09;11.80;99.90
33803;DHT22;20110;53.120;5.786;2023-12-22T10:56:35;11.80;99.90
33803;DHT22;20110;53.120;5.786;2023-12-22T10:59:01;11.60;99.90
33803;DHT22;20110;53.120;5.786;2023-12-22T11:01:29;11.40;99.90
33803;DHT22;20110;53.120;5.786;2023-12-22T11:03:57;11.20;99.90
33803;DHT22;20110;53.120;5.786;2023-12-22T11:06:27;11.50;99.90
33803;DHT22;20110;53.120;5.786;2023-12-22T11:08:55;11.50;99.90
33803;DHT22;20110;53.120;5.786;2023-12-22T11:14:01;11.90;99.90
33803;DHT22;20110;53.120;5.786;2023-12-22T11:16:27;12.00;99.90
33803;DHT22;20110;53.120;5.786;2023-12-22T11:18:59;11.80;99.90
33803;DHT22;20110;53.120;5.786;2023-12-22T11:21:27;12.30;99.90
33803;DHT22;20110;53.120;5.786;2023-12-22T11:23:54;11.90;99.90
33803;DHT22;20110;53.120;5.786;2023-12-22T11:26:21;11.80;99.90
33803;DHT22;20110;53.120;5.786;2023-12-22T11:28:48;11.90;99.90
33803;DHT22;20110;53.120;5.786;2023-12-22T11:31:14;11.90;99.90
33803;DHT22;20110;53.120;5.786;2023-12-22T11:33:43;12.10;99.90
33803;DHT22;20110;53.120;5.786;2023-12-22T11:36:10;12.20;99.90
33803;DHT22;20110;53.120;5.786;2023-12-22T11:38:37;12.20;99.90
33803;DHT22;20110;53.120;5.786;2023-12-22T11:41:03;12.20;99.90
33803;DHT22;20110;53.120;5.786;2023-12-22T11:43:31;12.30;99.90
33803;DHT22;20110;53.120;5.786;2023-12-22T11:46:03;12.40;99.90
33803;DHT22;20110;53.120;5.786;2023-12-22T11:48:29;12.30;99.90
33803;DHT22;20110;53.120;5.786;2023-12-22T11:50:56;12.30;99.90
33803;DHT22;20110;53.120;5.786;2023-12-22T11:53:23;12.30;99.90
33803;DHT22;20110;53.120;5.786;2023-12-22T11:58:39;12.20;99.90
33803;DHT22;20110;53.120;5.786;2023-12-22T12:01:14;11.70;99.90
33803;DHT22;20110;53.120;5.786;2023-12-22T12:03:41;11.60;99.90
33803;DHT22;20110;53.120;5.786;2023-12-22T12:06:16;11.60;99.90
33803;DHT22;20110;53.120;5.786;2023-12-22T12:08:52;11.40;99.90
33803;DHT22;20110;53.120;5.786;2023-12-22T12:11:21;11.20;99.90
33803;DHT22;20110;53.120;5.786;2023-12-22T12:13:48;11.50;99.90
33803;DHT22;20110;53.120;5.786;2023-12-22T12:16:20;11.80;99.90
33803;DHT22;20110;53.120;5.786;2023-12-22T12:18:47;11.90;99.90
33803;DHT22;20110;53.120;5.786;2023-12-22T12:21:13;11.70;99.90
33803;DHT22;20110;53.120;5.786;2023-12-22T12:23:38;11.60;99.90
33803;DHT22;20110;53.120;5.786;2023-12-22T12:26:06;11.50;99.90
33803;DHT22;20110;53.120;5.786;2023-12-22T12:28:34;11.80;99.90
33803;DHT22;20110;53.120;5.786;2023-12-22T12:31:05;11.90;99.90
33803;DHT22;20110;53.120;5.786;2023-12-22T12:33:31;12.00;99.90
33803;DHT22;20110;53.120;5.786;2023-12-22T12:35:58;12.00;99.90
33803;DHT22;20110;53.120;5.786;2023-12-22T12:41:06;11.60;99.90
33803;DHT22;20110;53.120;5.786;2023-12-22T12:43:35;11.40;99.90
33803;DHT22;20110;53.120;5.786;2023-12-22T12:46:05;11.20;99.90
33803;DHT22;20110;53.120;5.786;2023-12-22T12:48:31;11.20;99.90
33803;DHT22;20110;53.120;5.786;2023-12-22T12:51:03;11.30;99.90
33803;DHT22;20110;53.120;5.786;2023-12-22T12:53:31;11.20;99.90
33803;DHT22;20110;53.120;5.786;2023-12-22T12:55:58;11.60;99.90
33803;DHT22;20110;53.120;5.786;2023-12-22T12:58:30;11.70;99.90
33803;DHT22;20110;53.120;5.786;2023-12-22T13:03:32;11.50;99.90
33803;DHT22;20110;53.120;5.786;2023-12-22T13:06:07;11.40;99.90
33803;DHT22;20110;53.120;5.786;2023-12-22T13:08:34;11.60;99.90
33803;DHT22;20110;53.120;5.786;2023-12-22T13:11:00;11.60;99.90
33803;DHT22;20110;53.120;5.786;2023-12-22T13:13:27;11.60;99.90
33803;DHT22;20110;53.120;5.786;2023-12-22T13:15:52;11.60;99.90
33803;DHT22;20110;53.120;5.786;2023-12-22T13:18:18;11.60;99.90
33803;DHT22;20110;53.120;5.786;2023-12-22T13:20:44;11.50;99.90
33803;DHT22;20110;53.120;5.786;2023-12-22T13:23:10;11.10;99.90
33803;DHT22;20110;53.120;5.786;2023-12-22T13:25:39;11.10;99.90
33803;DHT22;20110;53.120;5.786;2023-12-22T13:28:05;11.20;99.90
33803;DHT22;20110;53.120;5.786;2023-12-22T13:30:38;11.40;99.90
33803;DHT22;20110;53.120;5.786;2023-12-22T13:33:06;11.50;99.90
33803;DHT22;20110;53.120;5.786;2023-12-22T13:35:33;11.50;99.90
33803;DHT22;20110;53.120;5.786;2023-12-22T13:38:02;11.50;99.90
33803;DHT22;20110;53.120;5.786;2023-12-22T13:40:36;11.50;99.90
33803;DHT22;20110;53.120;5.786;2023-12-22T13:43:03;11.30;99.90
33803;DHT22;20110;53.120;5.786;2023-12-22T13:45:30;11.20;99.90
33803;DHT22;20110;53.120;5.786;2023-12-22T13:47:56;11.20;99.90
33803;DHT22;20110;53.120;5.786;2023-12-22T13:50:22;11.20;99.90
33803;DHT22;20110;53.120;5.786;2023-12-22T13:52:48;11.30;99.90
33803;DHT22;20110;53.120;5.786;2023-12-22T13:55:18;11.10;99.90
33803;DHT22;20110;53.120;5.786;2023-12-22T13:57:48;11.00;99.90
33803;DHT22;20110;53.120;5.786;2023-12-22T14:02:45;10.80;99.90
33803;DHT22;20110;53.120;5.786;2023-12-22T14:05:11;10.70;99.90
33803;DHT22;20110;53.120;5.786;2023-12-22T14:07:37;10.90;99.90
33803;DHT22;20110;53.120;5.786;2023-12-22T14:10:09;10.90;99.90
33803;DHT22;20110;53.120;5.786;2023-12-22T14:12:36;11.00;99.90
33803;DHT22;20110;53.120;5.786;2023-12-22T14:17:35;11.00;99.90
33803;DHT22;20110;53.120;5.786;2023-12-22T14:20:00;11.00;99.90
33803;DHT22;20110;53.120;5.786;2023-12-22T14:22:26;11.00;99.90
33803;DHT22;20110;53.120;5.786;2023-12-22T14:24:52;11.00;99.90
33803;DHT22;20110;53.120;5.786;2023-12-22T14:27:18;11.00;99.90
33803;DHT22;20110;53.120;5.786;2023-12-22T14:29:45;10.90;99.90
33803;DHT22;20110;53.120;5.786;2023-12-22T14:32:11;10.90;99.90
33803;DHT22;20110;53.120;5.786;2023-12-22T14:34:38;10.90;99.90
33803;DHT22;20110;53.120;5.786;2023-12-22T14:37:04;11.00;99.90
33803;DHT22;20110;53.120;5.786;2023-12-22T14:39:29;11.00;99.90
33803;DHT22;20110;53.120;5.786;2023-12-22T14:41:56;11.10;99.90
33803;DHT22;20110;53.120;5.786;2023-12-22T14:44:22;11.10;99.90
33803;DHT22;20110;53.120;5.786;2023-12-22T14:46:48;10.90;99.90
33803;DHT22;20110;53.120;5.786;2023-12-22T14:49:13;11.00;99.90
33803;DHT22;20110;53.120;5.786;2023-12-22T14:51:39;10.90;99.90
33803;DHT22;20110;53.120;5.786;2023-12-22T14:54:06;10.90;99.90
33803;DHT22;20110;53.120;5.786;2023-12-22T14:56:32;10.90;99.90
33803;DHT22;20110;53.120;5.786;2023-12-22T14:58:58;11.10;99.90
33803;DHT22;20110;53.120;5.786;2023-12-22T15:01:24;11.20;99.90
33803;DHT22;20110;53.120;5.786;2023-12-22T15:03:50;11.30;99.90
33803;DHT22;20110;53.120;5.786;2023-12-22T15:06:16;11.10;99.90
33803;DHT22;20110;53.120;5.786;2023-12-22T15:08:41;11.10;99.90
33803;DHT22;20110;53.120;5.786;2023-12-22T15:11:07;11.10;99.90
33803;DHT22;20110;53.120;5.786;2023-12-22T15:13:34;11.10;99.90
33803;DHT22;20110;53.120;5.786;2023-12-22T15:16:06;11.30;99.90
33803;DHT22;20110;53.120;5.786;2023-12-22T15:18:32;11.40;99.90
33803;DHT22;20110;53.120;5.786;2023-12-22T15:20:58;11.40;99.90
33803;DHT22;20110;53.120;5.786;2023-12-22T15:23:24;11.50;99.90
33803;DHT22;20110;53.120;5.786;2023-12-22T15:25:51;11.50;99.90
33803;DHT22;20110;53.120;5.786;2023-12-22T15:28:17;11.50;99.90
33803;DHT22;20110;53.120;5.786;2023-12-22T15:30:43;11.50;99.90
33803;DHT22;20110;53.120;5.786;2023-12-22T15:33:09;11.50;99.90
33803;DHT22;20110;53.120;5.786;2023-12-22T15:35:34;11.50;99.90
33803;DHT22;20110;53.120;5.786;2023-12-22T15:38:00;11.50;99.90
33803;DHT22;20110;53.120;5.786;2023-12-22T15:40:26;11.20;99.90
33803;DHT22;20110;53.120;5.786;2023-12-22T15:42:52;11.20;99.90
33803;DHT22;20110;53.120;5.786;2023-12-22T15:45:19;11.20;99.90
33803;DHT22;20110;53.120;5.786;2023-12-22T15:47:45;11.30;99.90
33803;DHT22;20110;53.120;5.786;2023-12-22T15:50:11;11.30;99.90
33803;DHT22;20110;53.120;5.786;2023-12-22T15:52:37;11.30;99.90
33803;DHT22;20110;53.120;5.786;2023-12-22T15:55:03;11.20;99.90
33803;DHT22;20110;53.120;5.786;2023-12-22T15:57:29;11.20;99.90
33803;DHT22;20110;53.120;5.786;2023-12-22T15:59:55;11.40;99.90
33803;DHT22;20110;53.120;5.786;2023-12-22T16:02:20;11.60;99.90
33803;DHT22;20110;53.120;5.786;2023-12-22T16:04:46;11.50;99.90
33803;DHT22;20110;53.120;5.786;2023-12-22T16:07:13;11.50;99.90